sensor_id;sensor_type;location;lat;lon;timestamp;P1;durP1;ratioP1;P2;durP2;ratioP2
45688;SDS011;31400;48.132;20.872;2023-03-31T00:01:32;10.48;;;6.32;;
45688;SDS011;31400;48.132;20.872;2023-03-31T00:03:58;10.02;;;5.72;;
45688;SDS011;31400;48.132;20.872;2023-03-31T00:06:33;11.30;;;6.82;;
45688;SDS011;31400;48.132;20.872;2023-03-31T00:09:02;9.32;;;6.10;;
45688;SDS011;31400;48.132;20.872;2023-03-31T00:11:29;13.75;;;7.60;;
45688;SDS011;31400;48.132;20.872;2023-03-31T00:16:21;11.55;;;6.15;;
45688;SDS011;31400;48.132;20.872;2023-03-31T00:18:47;11.02;;;6.13;;
45688;SDS011;31400;48.132;20.872;2023-03-31T00:21:21;11.80;;;6.57;;
45688;SDS011;31400;48.132;20.872;2023-03-31T00:24:07;13.63;;;6.57;;
45688;SDS011;31400;48.132;20.872;2023-03-31T00:26:34;18.60;;;7.85;;
45688;SDS011;31400;48.132;20.872;2023-03-31T00:31:26;12.27;;;6.65;;
45688;SDS011;31400;48.132;20.872;2023-03-31T00:36:19;11.40;;;6.97;;
45688;SDS011;31400;48.132;20.872;2023-03-31T00:38:48;35.40;;;16.95;;
45688;SDS011;31400;48.132;20.872;2023-03-31T00:41:15;31.65;;;16.17;;
45688;SDS011;31400;48.132;20.872;2023-03-31T00:44:27;32.80;;;15.23;;
45688;SDS011;31400;48.132;20.872;2023-03-31T00:49:18;28.00;;;12.25;;
45688;SDS011;31400;48.132;20.872;2023-03-31T00:51:46;25.17;;;12.70;;
45688;SDS011;31400;48.132;20.872;2023-03-31T00:54:13;16.20;;;8.63;;
45688;SDS011;31400;48.132;20.872;2023-03-31T00:56:41;13.52;;;7.30;;
45688;SDS011;31400;48.132;20.872;2023-03-31T00:59:10;11.77;;;7.25;;
45688;SDS011;31400;48.132;20.872;2023-03-31T01:01:37;16.00;;;7.43;;
45688;SDS011;31400;48.132;20.872;2023-03-31T01:04:07;12.73;;;6.97;;
45688;SDS011;31400;48.132;20.872;2023-03-31T01:06:34;15.48;;;7.93;;
45688;SDS011;31400;48.132;20.872;2023-03-31T01:09:04;14.00;;;7.97;;
45688;SDS011;31400;48.132;20.872;2023-03-31T01:11:31;20.40;;;12.85;;
45688;SDS011;31400;48.132;20.872;2023-03-31T01:16:23;17.45;;;9.40;;
45688;SDS011;31400;48.132;20.872;2023-03-31T01:18:49;22.58;;;11.32;;
45688;SDS011;31400;48.132;20.872;2023-03-31T01:47:11;17.13;;;11.65;;
45688;SDS011;31400;48.132;20.872;2023-03-31T01:52:21;20.10;;;9.93;;
45688;SDS011;31400;48.132;20.872;2023-03-31T01:54:49;18.58;;;9.80;;
45688;SDS011;31400;48.132;20.872;2023-03-31T01:59:55;17.75;;;9.65;;
45688;SDS011;31400;48.132;20.872;2023-03-31T02:02:25;17.73;;;10.30;;
45688;SDS011;31400;48.132;20.872;2023-03-31T02:04:54;19.98;;;11.23;;
45688;SDS011;31400;48.132;20.872;2023-03-31T02:07:25;16.80;;;9.52;;
45688;SDS011;31400;48.132;20.872;2023-03-31T02:09:55;18.15;;;11.38;;
45688;SDS011;31400;48.132;20.872;2023-03-31T02:12:23;20.17;;;10.70;;
45688;SDS011;31400;48.132;20.872;2023-03-31T02:14:51;26.25;;;10.65;;
45688;SDS011;31400;48.132;20.872;2023-03-31T02:17:18;24.75;;;10.73;;
45688;SDS011;31400;48.132;20.872;2023-03-31T02:19:47;18.10;;;8.98;;
45688;SDS011;31400;48.132;20.872;2023-03-31T02:22:14;17.75;;;10.32;;
45688;SDS011;31400;48.132;20.872;2023-03-31T02:24:43;18.70;;;9.85;;
45688;SDS011;31400;48.132;20.872;2023-03-31T02:27:21;20.63;;;9.35;;
45688;SDS011;31400;48.132;20.872;2023-03-31T02:29:50;22.08;;;11.27;;
45688;SDS011;31400;48.132;20.872;2023-03-31T02:32:20;23.40;;;11.20;;
45688;SDS011;31400;48.132;20.872;2023-03-31T02:34:47;32.67;;;11.55;;
45688;SDS011;31400;48.132;20.872;2023-03-31T02:37:13;27.98;;;9.90;;
45688;SDS011;31400;48.132;20.872;2023-03-31T02:42:06;24.33;;;9.98;;
45688;SDS011;31400;48.132;20.872;2023-03-31T02:46:58;24.40;;;11.52;;
45688;SDS011;31400;48.132;20.872;2023-03-31T02:49:24;21.50;;;9.88;;
45688;SDS011;31400;48.132;20.872;2023-03-31T02:57:00;22.00;;;12.27;;
45688;SDS011;31400;48.132;20.872;2023-03-31T02:59:45;21.15;;;10.75;;
45688;SDS011;31400;48.132;20.872;2023-03-31T03:04:49;21.92;;;10.35;;
45688;SDS011;31400;48.132;20.872;2023-03-31T03:07:28;30.98;;;12.93;;
45688;SDS011;31400;48.132;20.872;2023-03-31T03:17:27;19.95;;;10.23;;
45688;SDS011;31400;48.132;20.872;2023-03-31T03:19:55;24.83;;;10.98;;
45688;SDS011;31400;48.132;20.872;2023-03-31T03:22:23;24.27;;;10.18;;
45688;SDS011;31400;48.132;20.872;2023-03-31T03:24:49;24.08;;;10.95;;
45688;SDS011;31400;48.132;20.872;2023-03-31T03:27:17;23.92;;;11.73;;
45688;SDS011;31400;48.132;20.872;2023-03-31T03:32:09;21.05;;;10.38;;
45688;SDS011;31400;48.132;20.872;2023-03-31T03:34:36;23.17;;;10.90;;
45688;SDS011;31400;48.132;20.872;2023-03-31T03:37:02;20.80;;;12.02;;
45688;SDS011;31400;48.132;20.872;2023-03-31T03:39:28;23.38;;;11.40;;
45688;SDS011;31400;48.132;20.872;2023-03-31T03:41:54;32.42;;;12.35;;
45688;SDS011;31400;48.132;20.872;2023-03-31T03:44:20;21.00;;;9.93;;
45688;SDS011;31400;48.132;20.872;2023-03-31T03:46:46;23.52;;;11.13;;
45688;SDS011;31400;48.132;20.872;2023-03-31T03:49:12;21.63;;;11.48;;
45688;SDS011;31400;48.132;20.872;2023-03-31T03:51:39;24.02;;;10.95;;
45688;SDS011;31400;48.132;20.872;2023-03-31T03:54:05;27.92;;;11.30;;
45688;SDS011;31400;48.132;20.872;2023-03-31T03:56:31;23.77;;;11.27;;
45688;SDS011;31400;48.132;20.872;2023-03-31T03:58:57;19.67;;;10.82;;
45688;SDS011;31400;48.132;20.872;2023-03-31T04:01:23;20.98;;;10.65;;
45688;SDS011;31400;48.132;20.872;2023-03-31T04:03:49;22.48;;;10.88;;
45688;SDS011;31400;48.132;20.872;2023-03-31T04:06:15;22.75;;;12.88;;
45688;SDS011;31400;48.132;20.872;2023-03-31T04:08:41;27.83;;;12.90;;
45688;SDS011;31400;48.132;20.872;2023-03-31T04:11:14;33.67;;;12.23;;
45688;SDS011;31400;48.132;20.872;2023-03-31T04:13:41;23.02;;;10.85;;
45688;SDS011;31400;48.132;20.872;2023-03-31T04:16:08;26.70;;;10.07;;
45688;SDS011;31400;48.132;20.872;2023-03-31T04:18:34;20.63;;;11.70;;
45688;SDS011;31400;48.132;20.872;2023-03-31T04:21:13;21.02;;;10.20;;
45688;SDS011;31400;48.132;20.872;2023-03-31T04:23:48;23.40;;;10.80;;
45688;SDS011;31400;48.132;20.872;2023-03-31T04:26:16;16.27;;;8.88;;
45688;SDS011;31400;48.132;20.872;2023-03-31T04:28:42;16.50;;;9.18;;
45688;SDS011;31400;48.132;20.872;2023-03-31T04:31:11;19.35;;;11.43;;
45688;SDS011;31400;48.132;20.872;2023-03-31T04:33:40;20.77;;;12.00;;
45688;SDS011;31400;48.132;20.872;2023-03-31T04:36:10;14.32;;;8.05;;
45688;SDS011;31400;48.132;20.872;2023-03-31T04:38:43;17.25;;;8.55;;
45688;SDS011;31400;48.132;20.872;2023-03-31T04:41:14;28.23;;;12.18;;
45688;SDS011;31400;48.132;20.872;2023-03-31T04:43:40;22.25;;;10.40;;
45688;SDS011;31400;48.132;20.872;2023-03-31T04:46:06;16.98;;;9.20;;
45688;SDS011;31400;48.132;20.872;2023-03-31T04:48:32;17.30;;;9.23;;
45688;SDS011;31400;48.132;20.872;2023-03-31T04:50:58;17.73;;;9.60;;
45688;SDS011;31400;48.132;20.872;2023-03-31T04:53:24;19.55;;;10.20;;
45688;SDS011;31400;48.132;20.872;2023-03-31T04:55:50;15.75;;;9.00;;
45688;SDS011;31400;48.132;20.872;2023-03-31T04:58:17;17.48;;;10.32;;
45688;SDS011;31400;48.132;20.872;2023-03-31T05:00:43;19.20;;;10.77;;
45688;SDS011;31400;48.132;20.872;2023-03-31T05:03:09;18.02;;;9.52;;
45688;SDS011;31400;48.132;20.872;2023-03-31T05:05:35;22.30;;;10.25;;
45688;SDS011;31400;48.132;20.872;2023-03-31T05:08:02;18.20;;;10.48;;
45688;SDS011;31400;48.132;20.872;2023-03-31T05:10:28;18.38;;;10.60;;
45688;SDS011;31400;48.132;20.872;2023-03-31T05:15:20;16.25;;;9.25;;
45688;SDS011;31400;48.132;20.872;2023-03-31T05:17:48;20.52;;;11.88;;
45688;SDS011;31400;48.132;20.872;2023-03-31T05:20:14;18.98;;;10.20;;
45688;SDS011;31400;48.132;20.872;2023-03-31T05:22:41;23.17;;;11.18;;
45688;SDS011;31400;48.132;20.872;2023-03-31T05:25:08;27.40;;;11.13;;
45688;SDS011;31400;48.132;20.872;2023-03-31T05:27:35;22.40;;;10.88;;
45688;SDS011;31400;48.132;20.872;2023-03-31T05:30:02;24.55;;;12.35;;
45688;SDS011;31400;48.132;20.872;2023-03-31T05:32:28;16.52;;;8.45;;
45688;SDS011;31400;48.132;20.872;2023-03-31T05:34:54;19.05;;;10.23;;
45688;SDS011;31400;48.132;20.872;2023-03-31T05:37:21;27.35;;;11.60;;
45688;SDS011;31400;48.132;20.872;2023-03-31T05:39:48;21.42;;;12.18;;
45688;SDS011;31400;48.132;20.872;2023-03-31T05:42:14;22.20;;;11.65;;
45688;SDS011;31400;48.132;20.872;2023-03-31T05:44:40;20.33;;;10.70;;
45688;SDS011;31400;48.132;20.872;2023-03-31T05:47:06;22.80;;;10.52;;
45688;SDS011;31400;48.132;20.872;2023-03-31T05:49:32;18.48;;;10.45;;
45688;SDS011;31400;48.132;20.872;2023-03-31T05:51:58;21.48;;;11.95;;
45688;SDS011;31400;48.132;20.872;2023-03-31T05:56:51;24.73;;;11.60;;
45688;SDS011;31400;48.132;20.872;2023-03-31T05:59:17;19.42;;;10.93;;
45688;SDS011;31400;48.132;20.872;2023-03-31T06:01:43;18.95;;;10.70;;
45688;SDS011;31400;48.132;20.872;2023-03-31T06:04:09;19.63;;;11.23;;
45688;SDS011;31400;48.132;20.872;2023-03-31T06:06:35;19.75;;;11.27;;
45688;SDS011;31400;48.132;20.872;2023-03-31T06:09:02;19.05;;;10.10;;
45688;SDS011;31400;48.132;20.872;2023-03-31T06:11:28;17.85;;;9.63;;
45688;SDS011;31400;48.132;20.872;2023-03-31T06:13:54;15.65;;;9.05;;
45688;SDS011;31400;48.132;20.872;2023-03-31T06:16:21;17.85;;;9.43;;
45688;SDS011;31400;48.132;20.872;2023-03-31T06:18:47;17.00;;;10.57;;
45688;SDS011;31400;48.132;20.872;2023-03-31T06:21:15;20.52;;;10.48;;
45688;SDS011;31400;48.132;20.872;2023-03-31T06:23:43;25.80;;;10.10;;
45688;SDS011;31400;48.132;20.872;2023-03-31T06:26:10;22.70;;;9.70;;
45688;SDS011;31400;48.132;20.872;2023-03-31T06:28:37;17.98;;;9.20;;
45688;SDS011;31400;48.132;20.872;2023-03-31T06:31:04;16.88;;;9.15;;
45688;SDS011;31400;48.132;20.872;2023-03-31T06:33:30;26.48;;;11.18;;
45688;SDS011;31400;48.132;20.872;2023-03-31T06:35:57;33.13;;;15.82;;
45688;SDS011;31400;48.132;20.872;2023-03-31T06:38:25;46.28;;;17.58;;
45688;SDS011;31400;48.132;20.872;2023-03-31T06:40:51;56.25;;;22.35;;
45688;SDS011;31400;48.132;20.872;2023-03-31T06:43:18;36.72;;;16.98;;
45688;SDS011;31400;48.132;20.872;2023-03-31T06:45:44;46.22;;;20.60;;
45688;SDS011;31400;48.132;20.872;2023-03-31T06:48:10;33.03;;;14.52;;
45688;SDS011;31400;48.132;20.872;2023-03-31T06:50:37;25.88;;;13.70;;
45688;SDS011;31400;48.132;20.872;2023-03-31T06:53:03;27.67;;;16.02;;
45688;SDS011;31400;48.132;20.872;2023-03-31T06:57:57;36.45;;;14.05;;
45688;SDS011;31400;48.132;20.872;2023-03-31T07:00:23;41.60;;;17.27;;
45688;SDS011;31400;48.132;20.872;2023-03-31T07:02:51;38.83;;;18.98;;
45688;SDS011;31400;48.132;20.872;2023-03-31T07:07:44;33.83;;;14.53;;
45688;SDS011;31400;48.132;20.872;2023-03-31T07:12:36;24.92;;;13.95;;
45688;SDS011;31400;48.132;20.872;2023-03-31T07:15:02;27.52;;;14.18;;
45688;SDS011;31400;48.132;20.872;2023-03-31T07:17:28;28.30;;;14.23;;
45688;SDS011;31400;48.132;20.872;2023-03-31T07:19:54;24.70;;;12.98;;
45688;SDS011;31400;48.132;20.872;2023-03-31T07:22:21;22.65;;;13.05;;
45688;SDS011;31400;48.132;20.872;2023-03-31T07:24:47;30.45;;;14.40;;
45688;SDS011;31400;48.132;20.872;2023-03-31T07:27:13;25.70;;;13.30;;
45688;SDS011;31400;48.132;20.872;2023-03-31T07:29:40;26.13;;;11.68;;
45688;SDS011;31400;48.132;20.872;2023-03-31T07:32:06;32.97;;;15.55;;
45688;SDS011;31400;48.132;20.872;2023-03-31T07:34:32;19.40;;;12.75;;
45688;SDS011;31400;48.132;20.872;2023-03-31T07:36:58;25.00;;;11.80;;
45688;SDS011;31400;48.132;20.872;2023-03-31T07:39:24;21.92;;;11.45;;
45688;SDS011;31400;48.132;20.872;2023-03-31T07:41:50;23.45;;;11.70;;
45688;SDS011;31400;48.132;20.872;2023-03-31T07:44:16;26.67;;;12.70;;
45688;SDS011;31400;48.132;20.872;2023-03-31T07:46:44;27.08;;;12.70;;
45688;SDS011;31400;48.132;20.872;2023-03-31T07:49:10;23.65;;;11.63;;
45688;SDS011;31400;48.132;20.872;2023-03-31T07:51:40;19.88;;;11.45;;
45688;SDS011;31400;48.132;20.872;2023-03-31T07:56:32;17.85;;;10.93;;
45688;SDS011;31400;48.132;20.872;2023-03-31T08:01:24;23.58;;;11.68;;
45688;SDS011;31400;48.132;20.872;2023-03-31T08:03:52;24.05;;;13.15;;
45688;SDS011;31400;48.132;20.872;2023-03-31T08:06:23;23.23;;;12.55;;
45688;SDS011;31400;48.132;20.872;2023-03-31T08:08:49;17.00;;;9.98;;
45688;SDS011;31400;48.132;20.872;2023-03-31T08:13:41;21.05;;;10.57;;
45688;SDS011;31400;48.132;20.872;2023-03-31T08:16:07;18.02;;;10.40;;
45688;SDS011;31400;48.132;20.872;2023-03-31T08:18:33;19.38;;;11.52;;
45688;SDS011;31400;48.132;20.872;2023-03-31T08:23:25;18.00;;;10.73;;
45688;SDS011;31400;48.132;20.872;2023-03-31T08:25:51;21.02;;;10.73;;
45688;SDS011;31400;48.132;20.872;2023-03-31T08:28:18;17.10;;;9.35;;
45688;SDS011;31400;48.132;20.872;2023-03-31T08:30:44;17.98;;;9.93;;
45688;SDS011;31400;48.132;20.872;2023-03-31T08:33:10;14.02;;;8.77;;
45688;SDS011;31400;48.132;20.872;2023-03-31T08:35:36;16.73;;;10.45;;
45688;SDS011;31400;48.132;20.872;2023-03-31T08:38:03;17.20;;;10.35;;
45688;SDS011;31400;48.132;20.872;2023-03-31T08:40:29;20.23;;;11.38;;
45688;SDS011;31400;48.132;20.872;2023-03-31T08:43:00;16.23;;;10.30;;
45688;SDS011;31400;48.132;20.872;2023-03-31T08:45:34;15.77;;;9.45;;
45688;SDS011;31400;48.132;20.872;2023-03-31T08:48:02;17.70;;;10.80;;
45688;SDS011;31400;48.132;20.872;2023-03-31T08:50:29;18.70;;;9.85;;
45688;SDS011;31400;48.132;20.872;2023-03-31T08:53:04;20.80;;;9.52;;
45688;SDS011;31400;48.132;20.872;2023-03-31T08:55:45;18.73;;;9.90;;
45688;SDS011;31400;48.132;20.872;2023-03-31T09:00:47;17.73;;;10.23;;
45688;SDS011;31400;48.132;20.872;2023-03-31T09:03:23;18.23;;;10.15;;
45688;SDS011;31400;48.132;20.872;2023-03-31T09:06:10;18.70;;;10.40;;
45688;SDS011;31400;48.132;20.872;2023-03-31T09:08:42;17.70;;;11.32;;
45688;SDS011;31400;48.132;20.872;2023-03-31T09:11:31;25.83;;;12.57;;
45688;SDS011;31400;48.132;20.872;2023-03-31T09:16:32;24.77;;;13.23;;
45688;SDS011;31400;48.132;20.872;2023-03-31T09:19:00;18.58;;;11.75;;
45688;SDS011;31400;48.132;20.872;2023-03-31T09:22:00;20.20;;;11.73;;
45688;SDS011;31400;48.132;20.872;2023-03-31T09:24:20;22.05;;;11.82;;
45688;SDS011;31400;48.132;20.872;2023-03-31T09:27:06;17.98;;;10.00;;
45688;SDS011;31400;48.132;20.872;2023-03-31T09:34:37;18.20;;;9.88;;
45688;SDS011;31400;48.132;20.872;2023-03-31T09:37:03;13.43;;;9.00;;
45688;SDS011;31400;48.132;20.872;2023-03-31T09:41:55;17.15;;;8.63;;
45688;SDS011;31400;48.132;20.872;2023-03-31T09:46:48;19.17;;;11.13;;
45688;SDS011;31400;48.132;20.872;2023-03-31T09:49:15;22.10;;;11.77;;
45688;SDS011;31400;48.132;20.872;2023-03-31T09:51:48;19.98;;;11.07;;
45688;SDS011;31400;48.132;20.872;2023-03-31T09:54:33;23.25;;;12.05;;
45688;SDS011;31400;48.132;20.872;2023-03-31T09:57:01;20.33;;;11.70;;
45688;SDS011;31400;48.132;20.872;2023-03-31T09:59:31;19.35;;;11.85;;
45688;SDS011;31400;48.132;20.872;2023-03-31T10:01:59;20.23;;;10.85;;
45688;SDS011;31400;48.132;20.872;2023-03-31T10:04:28;16.10;;;9.20;;
45688;SDS011;31400;48.132;20.872;2023-03-31T10:06:54;16.13;;;9.05;;
45688;SDS011;31400;48.132;20.872;2023-03-31T10:09:23;15.00;;;8.63;;
45688;SDS011;31400;48.132;20.872;2023-03-31T10:11:52;15.88;;;8.75;;
45688;SDS011;31400;48.132;20.872;2023-03-31T10:14:23;11.68;;;8.45;;
45688;SDS011;31400;48.132;20.872;2023-03-31T10:16:54;12.63;;;8.07;;
45688;SDS011;31400;48.132;20.872;2023-03-31T10:19:25;14.68;;;8.98;;
45688;SDS011;31400;48.132;20.872;2023-03-31T10:21:58;13.27;;;7.80;;
45688;SDS011;31400;48.132;20.872;2023-03-31T10:24:25;14.90;;;7.95;;
45688;SDS011;31400;48.132;20.872;2023-03-31T10:26:52;13.07;;;7.68;;
45688;SDS011;31400;48.132;20.872;2023-03-31T10:29:21;11.90;;;6.82;;
45688;SDS011;31400;48.132;20.872;2023-03-31T10:31:49;14.18;;;7.45;;
45688;SDS011;31400;48.132;20.872;2023-03-31T10:34:16;11.63;;;6.95;;
45688;SDS011;31400;48.132;20.872;2023-03-31T10:36:47;11.95;;;7.03;;
45688;SDS011;31400;48.132;20.872;2023-03-31T10:39:17;13.90;;;7.90;;
45688;SDS011;31400;48.132;20.872;2023-03-31T10:41:48;10.52;;;7.28;;
45688;SDS011;31400;48.132;20.872;2023-03-31T10:44:48;16.05;;;8.45;;
45688;SDS011;31400;48.132;20.872;2023-03-31T10:47:18;15.90;;;8.45;;
45688;SDS011;31400;48.132;20.872;2023-03-31T10:49:44;13.95;;;8.25;;
45688;SDS011;31400;48.132;20.872;2023-03-31T10:54:55;12.02;;;7.32;;
45688;SDS011;31400;48.132;20.872;2023-03-31T10:57:28;12.63;;;7.10;;
45688;SDS011;31400;48.132;20.872;2023-03-31T11:05:26;14.23;;;8.27;;
45688;SDS011;31400;48.132;20.872;2023-03-31T11:20:38;18.27;;;11.00;;
45688;SDS011;31400;48.132;20.872;2023-03-31T11:25:38;15.48;;;10.68;;
45688;SDS011;31400;48.132;20.872;2023-03-31T11:30:52;15.90;;;11.10;;
45688;SDS011;31400;48.132;20.872;2023-03-31T11:35:53;16.63;;;9.68;;
45688;SDS011;31400;48.132;20.872;2023-03-31T11:46:10;18.30;;;11.00;;
45688;SDS011;31400;48.132;20.872;2023-03-31T11:48:45;19.85;;;11.27;;
45688;SDS011;31400;48.132;20.872;2023-03-31T11:51:19;17.85;;;11.30;;
45688;SDS011;31400;48.132;20.872;2023-03-31T11:53:48;24.52;;;10.68;;
45688;SDS011;31400;48.132;20.872;2023-03-31T11:56:16;22.95;;;10.68;;
45688;SDS011;31400;48.132;20.872;2023-03-31T12:01:35;17.60;;;10.57;;
45688;SDS011;31400;48.132;20.872;2023-03-31T12:04:05;13.80;;;8.47;;
45688;SDS011;31400;48.132;20.872;2023-03-31T12:06:36;14.15;;;8.93;;
45688;SDS011;31400;48.132;20.872;2023-03-31T12:14:32;15.10;;;8.95;;
45688;SDS011;31400;48.132;20.872;2023-03-31T12:17:12;16.35;;;8.50;;
45688;SDS011;31400;48.132;20.872;2023-03-31T12:19:45;11.55;;;7.60;;
45688;SDS011;31400;48.132;20.872;2023-03-31T12:24:41;12.32;;;7.20;;
45688;SDS011;31400;48.132;20.872;2023-03-31T12:29:47;13.10;;;8.88;;
45688;SDS011;31400;48.132;20.872;2023-03-31T12:48:24;13.40;;;7.60;;
45688;SDS011;31400;48.132;20.872;2023-03-31T12:53:40;14.32;;;8.77;;
45688;SDS011;31400;48.132;20.872;2023-03-31T12:56:07;16.45;;;8.60;;
45688;SDS011;31400;48.132;20.872;2023-03-31T12:58:37;13.38;;;7.55;;
45688;SDS011;31400;48.132;20.872;2023-03-31T13:05:59;12.93;;;7.25;;
45688;SDS011;31400;48.132;20.872;2023-03-31T13:08:59;15.30;;;8.40;;
45688;SDS011;31400;48.132;20.872;2023-03-31T13:19:36;11.32;;;6.80;;
45688;SDS011;31400;48.132;20.872;2023-03-31T13:22:05;12.00;;;8.05;;
45688;SDS011;31400;48.132;20.872;2023-03-31T13:24:32;12.20;;;7.18;;
45688;SDS011;31400;48.132;20.872;2023-03-31T13:30:02;11.50;;;7.22;;
45688;SDS011;31400;48.132;20.872;2023-03-31T13:32:30;14.63;;;7.45;;
45688;SDS011;31400;48.132;20.872;2023-03-31T13:40:34;12.68;;;7.63;;
45688;SDS011;31400;48.132;20.872;2023-03-31T14:04:10;13.18;;;6.50;;
45688;SDS011;31400;48.132;20.872;2023-03-31T14:06:52;15.85;;;6.05;;
45688;SDS011;31400;48.132;20.872;2023-03-31T14:11:46;11.90;;;7.53;;
45688;SDS011;31400;48.132;20.872;2023-03-31T14:14:15;10.90;;;6.30;;
45688;SDS011;31400;48.132;20.872;2023-03-31T14:16:50;11.77;;;6.75;;
45688;SDS011;31400;48.132;20.872;2023-03-31T14:21:47;14.35;;;7.80;;
45688;SDS011;31400;48.132;20.872;2023-03-31T14:24:32;11.77;;;6.47;;
45688;SDS011;31400;48.132;20.872;2023-03-31T14:27:42;16.85;;;7.50;;
45688;SDS011;31400;48.132;20.872;2023-03-31T14:37:29;13.02;;;7.80;;
45688;SDS011;31400;48.132;20.872;2023-03-31T14:39:56;16.40;;;8.15;;
45688;SDS011;31400;48.132;20.872;2023-03-31T14:42:27;13.38;;;7.70;;
45688;SDS011;31400;48.132;20.872;2023-03-31T14:44:55;12.93;;;8.35;;
45688;SDS011;31400;48.132;20.872;2023-03-31T14:47:22;11.57;;;6.45;;
45688;SDS011;31400;48.132;20.872;2023-03-31T14:50:10;13.02;;;7.60;;
45688;SDS011;31400;48.132;20.872;2023-03-31T14:52:37;11.82;;;7.35;;
45688;SDS011;31400;48.132;20.872;2023-03-31T14:55:04;14.15;;;6.95;;
45688;SDS011;31400;48.132;20.872;2023-03-31T14:57:34;13.35;;;7.75;;
45688;SDS011;31400;48.132;20.872;2023-03-31T15:00:03;11.50;;;6.82;;
45688;SDS011;31400;48.132;20.872;2023-03-31T15:02:33;14.13;;;6.50;;
45688;SDS011;31400;48.132;20.872;2023-03-31T15:05:03;9.05;;;6.10;;
45688;SDS011;31400;48.132;20.872;2023-03-31T15:07:31;10.23;;;5.32;;
45688;SDS011;31400;48.132;20.872;2023-03-31T15:12:23;9.77;;;4.45;;
45688;SDS011;31400;48.132;20.872;2023-03-31T15:14:50;10.60;;;4.32;;
45688;SDS011;31400;48.132;20.872;2023-03-31T15:17:24;7.25;;;3.50;;
45688;SDS011;31400;48.132;20.872;2023-03-31T15:19:56;12.10;;;5.60;;
45688;SDS011;31400;48.132;20.872;2023-03-31T15:22:23;11.40;;;5.22;;
45688;SDS011;31400;48.132;20.872;2023-03-31T15:24:50;7.78;;;4.50;;
45688;SDS011;31400;48.132;20.872;2023-03-31T15:27:31;8.23;;;5.05;;
45688;SDS011;31400;48.132;20.872;2023-03-31T15:29:59;7.35;;;4.55;;
45688;SDS011;31400;48.132;20.872;2023-03-31T15:34:52;10.32;;;6.57;;
45688;SDS011;31400;48.132;20.872;2023-03-31T15:37:26;8.50;;;5.38;;
45688;SDS011;31400;48.132;20.872;2023-03-31T15:39:54;8.05;;;4.35;;
45688;SDS011;31400;48.132;20.872;2023-03-31T15:42:22;8.05;;;4.53;;
45688;SDS011;31400;48.132;20.872;2023-03-31T15:47:33;8.40;;;4.72;;
45688;SDS011;31400;48.132;20.872;2023-03-31T15:54:58;9.38;;;4.97;;
45688;SDS011;31400;48.132;20.872;2023-03-31T15:57:32;9.43;;;5.65;;
45688;SDS011;31400;48.132;20.872;2023-03-31T15:59:58;9.38;;;5.95;;
45688;SDS011;31400;48.132;20.872;2023-03-31T16:02:26;12.75;;;6.55;;
45688;SDS011;31400;48.132;20.872;2023-03-31T16:04:56;9.85;;;6.13;;
45688;SDS011;31400;48.132;20.872;2023-03-31T16:07:27;12.43;;;6.13;;
45688;SDS011;31400;48.132;20.872;2023-03-31T16:14:54;13.45;;;7.60;;
45688;SDS011;31400;48.132;20.872;2023-03-31T16:20:17;12.70;;;7.88;;
45688;SDS011;31400;48.132;20.872;2023-03-31T16:22:46;16.60;;;9.40;;
45688;SDS011;31400;48.132;20.872;2023-03-31T16:25:15;15.50;;;8.45;;
45688;SDS011;31400;48.132;20.872;2023-03-31T16:27:45;17.67;;;9.25;;
45688;SDS011;31400;48.132;20.872;2023-03-31T16:30:14;11.35;;;7.70;;
45688;SDS011;31400;48.132;20.872;2023-03-31T16:35:32;15.32;;;8.73;;
45688;SDS011;31400;48.132;20.872;2023-03-31T16:37:59;13.70;;;9.23;;
45688;SDS011;31400;48.132;20.872;2023-03-31T16:40:28;16.75;;;9.00;;
45688;SDS011;31400;48.132;20.872;2023-03-31T16:45:40;13.40;;;8.07;;
45688;SDS011;31400;48.132;20.872;2023-03-31T16:48:06;19.58;;;8.82;;
45688;SDS011;31400;48.132;20.872;2023-03-31T16:50:32;21.30;;;10.95;;
45688;SDS011;31400;48.132;20.872;2023-03-31T16:52:59;18.30;;;9.88;;
45688;SDS011;31400;48.132;20.872;2023-03-31T16:57:51;14.02;;;8.32;;
45688;SDS011;31400;48.132;20.872;2023-03-31T17:00:18;17.40;;;10.85;;
45688;SDS011;31400;48.132;20.872;2023-03-31T17:05:11;23.83;;;11.32;;
45688;SDS011;31400;48.132;20.872;2023-03-31T17:07:37;16.55;;;8.77;;
45688;SDS011;31400;48.132;20.872;2023-03-31T17:10:03;18.05;;;10.52;;
45688;SDS011;31400;48.132;20.872;2023-03-31T17:12:29;18.25;;;11.10;;
45688;SDS011;31400;48.132;20.872;2023-03-31T17:14:56;19.80;;;11.55;;
45688;SDS011;31400;48.132;20.872;2023-03-31T17:17:22;19.65;;;10.55;;
45688;SDS011;31400;48.132;20.872;2023-03-31T17:22:15;20.50;;;11.23;;
45688;SDS011;31400;48.132;20.872;2023-03-31T17:24:41;21.00;;;11.75;;
45688;SDS011;31400;48.132;20.872;2023-03-31T17:27:07;21.23;;;11.75;;
45688;SDS011;31400;48.132;20.872;2023-03-31T17:29:33;15.73;;;10.35;;
45688;SDS011;31400;48.132;20.872;2023-03-31T17:32:00;16.50;;;9.23;;
45688;SDS011;31400;48.132;20.872;2023-03-31T17:34:26;17.73;;;12.15;;
45688;SDS011;31400;48.132;20.872;2023-03-31T17:36:52;24.92;;;10.60;;
45688;SDS011;31400;48.132;20.872;2023-03-31T17:39:19;19.60;;;11.15;;
45688;SDS011;31400;48.132;20.872;2023-03-31T17:41:45;16.80;;;9.85;;
45688;SDS011;31400;48.132;20.872;2023-03-31T17:44:11;23.10;;;12.15;;
45688;SDS011;31400;48.132;20.872;2023-03-31T17:46:37;16.65;;;10.48;;
45688;SDS011;31400;48.132;20.872;2023-03-31T17:49:03;22.35;;;11.27;;
45688;SDS011;31400;48.132;20.872;2023-03-31T17:51:29;21.13;;;11.20;;
45688;SDS011;31400;48.132;20.872;2023-03-31T17:53:58;22.25;;;12.18;;
45688;SDS011;31400;48.132;20.872;2023-03-31T17:56:24;17.20;;;9.30;;
45688;SDS011;31400;48.132;20.872;2023-03-31T17:58:50;22.17;;;9.55;;
45688;SDS011;31400;48.132;20.872;2023-03-31T18:01:17;27.17;;;12.90;;
45688;SDS011;31400;48.132;20.872;2023-03-31T18:03:43;19.45;;;11.18;;
45688;SDS011;31400;48.132;20.872;2023-03-31T18:06:11;16.13;;;9.98;;
45688;SDS011;31400;48.132;20.872;2023-03-31T18:08:37;22.35;;;10.23;;
45688;SDS011;31400;48.132;20.872;2023-03-31T18:11:04;19.90;;;12.00;;
45688;SDS011;31400;48.132;20.872;2023-03-31T18:13:31;22.00;;;11.48;;
45688;SDS011;31400;48.132;20.872;2023-03-31T18:15:58;26.52;;;11.20;;
45688;SDS011;31400;48.132;20.872;2023-03-31T18:18:25;17.42;;;10.27;;
45688;SDS011;31400;48.132;20.872;2023-03-31T18:20:53;19.30;;;10.27;;
45688;SDS011;31400;48.132;20.872;2023-03-31T18:25:45;22.85;;;11.20;;
45688;SDS011;31400;48.132;20.872;2023-03-31T18:30:37;17.63;;;10.65;;
45688;SDS011;31400;48.132;20.872;2023-03-31T18:33:03;23.75;;;10.93;;
45688;SDS011;31400;48.132;20.872;2023-03-31T18:35:30;21.95;;;11.38;;
45688;SDS011;31400;48.132;20.872;2023-03-31T18:37:56;17.73;;;10.77;;
45688;SDS011;31400;48.132;20.872;2023-03-31T18:40:22;24.67;;;13.35;;
45688;SDS011;31400;48.132;20.872;2023-03-31T18:42:48;23.17;;;12.95;;
45688;SDS011;31400;48.132;20.872;2023-03-31T18:45:16;19.27;;;11.48;;
45688;SDS011;31400;48.132;20.872;2023-03-31T18:47:42;23.88;;;11.38;;
45688;SDS011;31400;48.132;20.872;2023-03-31T18:50:08;22.83;;;13.45;;